<?xml version="1.0" encoding="UTF-8"?>
<gpx xmlns="http://www.topografix.com/GPX/1/1" version="1.1" xmlns:xsi="http://www.w3.org/2001/XMLSchema-instance" xsi:schemaLocation="http://www.topografix.com/GPX/1/1 http://www.topografix.com/GPX/1/1/gpx.xsd" creator="MotionXGPSFull 24.4 Build 5112 R64">
<trk>
<name><![CDATA[Sze Lok Yuen loop]]></name>
<desc><![CDATA[Jan 21, 2018 10:16 am]]></desc>
<trkseg>
<trkpt lat="22.4074058" lon="114.1193016">
<ele>681.884</ele>
<time>2018-01-21T02:17:10.218Z</time>
</trkpt>
<trkpt lat="22.4074912" lon="114.1192712">
<ele>681.570</ele>
<time>2018-01-21T02:17:23.207Z</time>
</trkpt>
<trkpt lat="22.4074912" lon="114.1192712">
<ele>681.351</ele>
<time>2018-01-21T02:17:31.203Z</time>
</trkpt>
<trkpt lat="22.4074912" lon="114.1192712">
<ele>681.058</ele>
<time>2018-01-21T02:17:36.372Z</time>
</trkpt>
<trkpt lat="22.4075269" lon="114.1191290">
<ele>680.743</ele>
<time>2018-01-21T02:17:55.211Z</time>
</trkpt>
<trkpt lat="22.4075269" lon="114.1191290">
<ele>680.476</ele>
<time>2018-01-21T02:18:00.214Z</time>
</trkpt>
<trkpt lat="22.4075269" lon="114.1191290">
<ele>680.172</ele>
<time>2018-01-21T02:18:07.830Z</time>
</trkpt>
<trkpt lat="22.4076383" lon="114.1191101">
<ele>679.867</ele>
<time>2018-01-21T02:18:23.070Z</time>
</trkpt>
<trkpt lat="22.4077043" lon="114.1190433">
<ele>676.341</ele>
<time>2018-01-21T02:18:32.392Z</time>
</trkpt>
<trkpt lat="22.4077378" lon="114.1189529">
<ele>667.579</ele>
<time>2018-01-21T02:18:42.462Z</time>
</trkpt>
<trkpt lat="22.4077659" lon="114.1188531">
<ele>659.089</ele>
<time>2018-01-21T02:18:52.358Z</time>
</trkpt>
<trkpt lat="22.4078460" lon="114.1188023">
<ele>656.174</ele>
<time>2018-01-21T02:19:00.268Z</time>
</trkpt>
<trkpt lat="22.4079201" lon="114.1187337">
<ele>657.312</ele>
<time>2018-01-21T02:19:08.021Z</time>
</trkpt>
<trkpt lat="22.4079775" lon="114.1186531">
<ele>659.839</ele>
<time>2018-01-21T02:19:15.431Z</time>
</trkpt>
<trkpt lat="22.4080708" lon="114.1186255">
<ele>662.349</ele>
<time>2018-01-21T02:19:23.709Z</time>
</trkpt>
<trkpt lat="22.4081585" lon="114.1185915">
<ele>664.127</ele>
<time>2018-01-21T02:19:33.206Z</time>
</trkpt>
<trkpt lat="22.4081585" lon="114.1185915">
<ele>664.972</ele>
<time>2018-01-21T02:19:37.202Z</time>
</trkpt>
<trkpt lat="22.4081585" lon="114.1185915">
<ele>665.071</ele>
<time>2018-01-21T02:19:37.302Z</time>
</trkpt>
<trkpt lat="22.4082582" lon="114.1185522">
<ele>664.732</ele>
<time>2018-01-21T02:19:58.157Z</time>
</trkpt>
<trkpt lat="22.4083537" lon="114.1185354">
<ele>664.965</ele>
<time>2018-01-21T02:20:08.703Z</time>
</trkpt>
<trkpt lat="22.4084463" lon="114.1184918">
<ele>666.513</ele>
<time>2018-01-21T02:20:18.632Z</time>
</trkpt>
<trkpt lat="22.4085399" lon="114.1184765">
<ele>668.670</ele>
<time>2018-01-21T02:20:29.233Z</time>
</trkpt>
<trkpt lat="22.4086204" lon="114.1184294">
<ele>670.481</ele>
<time>2018-01-21T02:20:40.583Z</time>
</trkpt>
<trkpt lat="22.4086962" lon="114.1183611">
<ele>671.782</ele>
<time>2018-01-21T02:20:51.834Z</time>
</trkpt>
<trkpt lat="22.4087932" lon="114.1183686">
<ele>672.670</ele>
<time>2018-01-21T02:20:59.506Z</time>
</trkpt>
<trkpt lat="22.4088911" lon="114.1183777">
<ele>673.257</ele>
<time>2018-01-21T02:21:07.672Z</time>
</trkpt>
<trkpt lat="22.4089770" lon="114.1184158">
<ele>673.553</ele>
<time>2018-01-21T02:21:16.569Z</time>
</trkpt>
<trkpt lat="22.4090700" lon="114.1184367">
<ele>673.504</ele>
<time>2018-01-21T02:21:29.539Z</time>
</trkpt>
<trkpt lat="22.4091591" lon="114.1184160">
<ele>673.065</ele>
<time>2018-01-21T02:21:40.441Z</time>
</trkpt>
<trkpt lat="22.4092404" lon="114.1184586">
<ele>672.412</ele>
<time>2018-01-21T02:21:51.537Z</time>
</trkpt>
<trkpt lat="22.4093111" lon="114.1185211">
<ele>672.024</ele>
<time>2018-01-21T02:22:03.753Z</time>
</trkpt>
<trkpt lat="22.4093903" lon="114.1185789">
<ele>672.286</ele>
<time>2018-01-21T02:22:14.237Z</time>
</trkpt>
<trkpt lat="22.4094516" lon="114.1186539">
<ele>673.226</ele>
<time>2018-01-21T02:22:23.101Z</time>
</trkpt>
<trkpt lat="22.4095187" lon="114.1187219">
<ele>674.407</ele>
<time>2018-01-21T02:22:31.744Z</time>
</trkpt>
<trkpt lat="22.4096136" lon="114.1187372">
<ele>675.184</ele>
<time>2018-01-21T02:22:41.782Z</time>
</trkpt>
<trkpt lat="22.4096979" lon="114.1186971">
<ele>675.348</ele>
<time>2018-01-21T02:22:52.386Z</time>
</trkpt>
<trkpt lat="22.4097365" lon="114.1186044">
<ele>675.492</ele>
<time>2018-01-21T02:23:02.782Z</time>
</trkpt>
<trkpt lat="22.4097855" lon="114.1185133">
<ele>676.089</ele>
<time>2018-01-21T02:23:12.989Z</time>
</trkpt>
<trkpt lat="22.4098761" lon="114.1184981">
<ele>676.681</ele>
<time>2018-01-21T02:23:23.256Z</time>
</trkpt>
<trkpt lat="22.4098761" lon="114.1184981">
<ele>676.751</ele>
<time>2018-01-21T02:23:32.196Z</time>
</trkpt>
<trkpt lat="22.4098761" lon="114.1184981">
<ele>676.471</ele>
<time>2018-01-21T02:23:32.296Z</time>
</trkpt>
<trkpt lat="22.4099764" lon="114.1186075">
<ele>676.151</ele>
<time>2018-01-21T02:23:53.004Z</time>
</trkpt>
<trkpt lat="22.4100542" lon="114.1186627">
<ele>675.927</ele>
<time>2018-01-21T02:24:01.867Z</time>
</trkpt>
<trkpt lat="22.4101250" lon="114.1187344">
<ele>675.820</ele>
<time>2018-01-21T02:24:11.176Z</time>
</trkpt>
<trkpt lat="22.4102124" lon="114.1187792">
<ele>676.180</ele>
<time>2018-01-21T02:24:19.728Z</time>
</trkpt>
<trkpt lat="22.4103084" lon="114.1187949">
<ele>677.302</ele>
<time>2018-01-21T02:24:28.791Z</time>
</trkpt>
<trkpt lat="22.4103980" lon="114.1187800">
<ele>678.765</ele>
<time>2018-01-21T02:24:39.671Z</time>
</trkpt>
<trkpt lat="22.4104880" lon="114.1187705">
<ele>679.956</ele>
<time>2018-01-21T02:24:49.947Z</time>
</trkpt>
<trkpt lat="22.4105828" lon="114.1187397">
<ele>680.878</ele>
<time>2018-01-21T02:24:59.223Z</time>
</trkpt>
<trkpt lat="22.4106744" lon="114.1187131">
<ele>681.746</ele>
<time>2018-01-21T02:25:08.034Z</time>
</trkpt>
<trkpt lat="22.4107637" lon="114.1186873">
<ele>682.747</ele>
<time>2018-01-21T02:25:17.530Z</time>
</trkpt>
<trkpt lat="22.4108582" lon="114.1186738">
<ele>684.153</ele>
<time>2018-01-21T02:25:28.888Z</time>
</trkpt>
<trkpt lat="22.4109518" lon="114.1186737">
<ele>685.853</ele>
<time>2018-01-21T02:25:39.815Z</time>
</trkpt>
<trkpt lat="22.4110436" lon="114.1186780">
<ele>687.606</ele>
<time>2018-01-21T02:25:50.301Z</time>
</trkpt>
<trkpt lat="22.4111380" lon="114.1186527">
<ele>689.539</ele>
<time>2018-01-21T02:26:01.449Z</time>
</trkpt>
<trkpt lat="22.4112197" lon="114.1186044">
<ele>691.326</ele>
<time>2018-01-21T02:26:12.897Z</time>
</trkpt>
<trkpt lat="22.4112896" lon="114.1185428">
<ele>692.458</ele>
<time>2018-01-21T02:26:23.978Z</time>
</trkpt>
<trkpt lat="22.4113708" lon="114.1184791">
<ele>693.098</ele>
<time>2018-01-21T02:26:34.424Z</time>
</trkpt>
<trkpt lat="22.4114415" lon="114.1184094">
<ele>693.822</ele>
<time>2018-01-21T02:26:45.634Z</time>
</trkpt>
<trkpt lat="22.4115365" lon="114.1184230">
<ele>695.355</ele>
<time>2018-01-21T02:26:58.818Z</time>
</trkpt>
<trkpt lat="22.4115863" lon="114.1185071">
<ele>697.996</ele>
<time>2018-01-21T02:27:12.882Z</time>
</trkpt>
<trkpt lat="22.4116026" lon="114.1186067">
<ele>700.908</ele>
<time>2018-01-21T02:27:26.522Z</time>
</trkpt>
<trkpt lat="22.4116000" lon="114.1187098">
<ele>702.905</ele>
<time>2018-01-21T02:27:40.421Z</time>
</trkpt>
<trkpt lat="22.4115850" lon="114.1188115">
<ele>703.822</ele>
<time>2018-01-21T02:27:53.022Z</time>
</trkpt>
<trkpt lat="22.4115250" lon="114.1188841">
<ele>704.271</ele>
<time>2018-01-21T02:28:04.993Z</time>
</trkpt>
<trkpt lat="22.4115250" lon="114.1188841">
<ele>704.520</ele>
<time>2018-01-21T02:28:21.993Z</time>
</trkpt>
<trkpt lat="22.4115250" lon="114.1188841">
<ele>704.455</ele>
<time>2018-01-21T02:31:09.816Z</time>
</trkpt>
<trkpt lat="22.4113405" lon="114.1189279">
<ele>704.129</ele>
<time>2018-01-21T02:31:27.999Z</time>
</trkpt>
<trkpt lat="22.4113405" lon="114.1189279">
<ele>703.812</ele>
<time>2018-01-21T02:31:42.999Z</time>
</trkpt>
<trkpt lat="22.4113405" lon="114.1189279">
<ele>703.613</ele>
<time>2018-01-21T02:31:43.099Z</time>
</trkpt>
<trkpt lat="22.4112229" lon="114.1189271">
<ele>703.454</ele>
<time>2018-01-21T02:32:22.363Z</time>
</trkpt>
<trkpt lat="22.4111619" lon="114.1190124">
<ele>704.300</ele>
<time>2018-01-21T02:32:30.305Z</time>
</trkpt>
<trkpt lat="22.4110926" lon="114.1190793">
<ele>706.769</ele>
<time>2018-01-21T02:32:39.637Z</time>
</trkpt>
<trkpt lat="22.4110217" lon="114.1191431">
<ele>709.235</ele>
<time>2018-01-21T02:32:49.651Z</time>
</trkpt>
<trkpt lat="22.4109380" lon="114.1191881">
<ele>710.178</ele>
<time>2018-01-21T02:33:00.997Z</time>
</trkpt>
<trkpt lat="22.4109380" lon="114.1191881">
<ele>710.071</ele>
<time>2018-01-21T02:33:05.997Z</time>
</trkpt>
<trkpt lat="22.4109380" lon="114.1191881">
<ele>709.706</ele>
<time>2018-01-21T02:33:35.996Z</time>
</trkpt>
<trkpt lat="22.4109380" lon="114.1191881">
<ele>709.419</ele>
<time>2018-01-21T02:33:36.096Z</time>
</trkpt>
<trkpt lat="22.4108595" lon="114.1192519">
<ele>709.033</ele>
<time>2018-01-21T02:34:03.974Z</time>
</trkpt>
<trkpt lat="22.4107678" lon="114.1192622">
<ele>709.947</ele>
<time>2018-01-21T02:34:12.031Z</time>
</trkpt>
<trkpt lat="22.4106748" lon="114.1192808">
<ele>712.619</ele>
<time>2018-01-21T02:34:20.588Z</time>
</trkpt>
<trkpt lat="22.4105923" lon="114.1193272">
<ele>715.539</ele>
<time>2018-01-21T02:34:30.572Z</time>
</trkpt>
<trkpt lat="22.4105132" lon="114.1193939">
<ele>717.279</ele>
<time>2018-01-21T02:34:40.678Z</time>
</trkpt>
<trkpt lat="22.4104348" lon="114.1194606">
<ele>718.129</ele>
<time>2018-01-21T02:34:48.566Z</time>
</trkpt>
<trkpt lat="22.4103716" lon="114.1195404">
<ele>718.788</ele>
<time>2018-01-21T02:34:55.809Z</time>
</trkpt>
<trkpt lat="22.4103512" lon="114.1196418">
<ele>719.634</ele>
<time>2018-01-21T02:35:03.779Z</time>
</trkpt>
<trkpt lat="22.4102729" lon="114.1196897">
<ele>720.470</ele>
<time>2018-01-21T02:35:11.946Z</time>
</trkpt>
<trkpt lat="22.4101902" lon="114.1197566">
<ele>721.080</ele>
<time>2018-01-21T02:35:21.247Z</time>
</trkpt>
<trkpt lat="22.4101157" lon="114.1198242">
<ele>721.571</ele>
<time>2018-01-21T02:35:30.132Z</time>
</trkpt>
<trkpt lat="22.4100469" lon="114.1198924">
<ele>722.022</ele>
<time>2018-01-21T02:35:40.020Z</time>
</trkpt>
<trkpt lat="22.4099546" lon="114.1198829">
<ele>722.655</ele>
<time>2018-01-21T02:35:51.908Z</time>
</trkpt>
<trkpt lat="22.4098630" lon="114.1199084">
<ele>723.871</ele>
<time>2018-01-21T02:36:00.994Z</time>
</trkpt>
<trkpt lat="22.4098630" lon="114.1199084">
<ele>725.434</ele>
<time>2018-01-21T02:36:08.994Z</time>
</trkpt>
<trkpt lat="22.4098630" lon="114.1199084">
<ele>726.251</ele>
<time>2018-01-21T02:36:09.094Z</time>
</trkpt>
<trkpt lat="22.4097741" lon="114.1200050">
<ele>725.890</ele>
<time>2018-01-21T02:36:23.768Z</time>
</trkpt>
<trkpt lat="22.4096989" lon="114.1200793">
<ele>725.508</ele>
<time>2018-01-21T02:36:34.938Z</time>
</trkpt>
<trkpt lat="22.4096397" lon="114.1201664">
<ele>726.278</ele>
<time>2018-01-21T02:36:46.001Z</time>
</trkpt>
<trkpt lat="22.4095676" lon="114.1202278">
<ele>727.736</ele>
<time>2018-01-21T02:36:56.102Z</time>
</trkpt>
<trkpt lat="22.4094764" lon="114.1202474">
<ele>728.808</ele>
<time>2018-01-21T02:37:06.456Z</time>
</trkpt>
<trkpt lat="22.4093830" lon="114.1202335">
<ele>728.989</ele>
<time>2018-01-21T02:37:17.131Z</time>
</trkpt>
<trkpt lat="22.4092911" lon="114.1202128">
<ele>728.391</ele>
<time>2018-01-21T02:37:29.437Z</time>
</trkpt>
<trkpt lat="22.4091988" lon="114.1202015">
<ele>727.645</ele>
<time>2018-01-21T02:37:43.895Z</time>
</trkpt>
<trkpt lat="22.4091092" lon="114.1202357">
<ele>727.369</ele>
<time>2018-01-21T02:37:58.132Z</time>
</trkpt>
<trkpt lat="22.4090395" lon="114.1202981">
<ele>727.681</ele>
<time>2018-01-21T02:38:10.022Z</time>
</trkpt>
<trkpt lat="22.4089569" lon="114.1203494">
<ele>728.463</ele>
<time>2018-01-21T02:38:20.796Z</time>
</trkpt>
<trkpt lat="22.4088791" lon="114.1204061">
<ele>729.764</ele>
<time>2018-01-21T02:38:30.834Z</time>
</trkpt>
<trkpt lat="22.4088791" lon="114.1204061">
<ele>729.764</ele>
<time>2018-01-21T02:38:30.834Z</time>
</trkpt>
<trkpt lat="22.4087600" lon="114.1206817">
<ele>756.832</ele>
<time>2018-01-21T02:39:00.939Z</time>
</trkpt>
<trkpt lat="22.4086988" lon="114.1207681">
<ele>756.483</ele>
<time>2018-01-21T02:39:11.193Z</time>
</trkpt>
<trkpt lat="22.4086860" lon="114.1208770">
<ele>756.185</ele>
<time>2018-01-21T02:39:21.984Z</time>
</trkpt>
<trkpt lat="22.4086421" lon="114.1209773">
<ele>755.729</ele>
<time>2018-01-21T02:39:33.747Z</time>
</trkpt>
<trkpt lat="22.4087044" lon="114.1210479">
<ele>755.263</ele>
<time>2018-01-21T02:39:45.939Z</time>
</trkpt>
<trkpt lat="22.4087100" lon="114.1211534">
<ele>754.696</ele>
<time>2018-01-21T02:40:01.358Z</time>
</trkpt>
<trkpt lat="22.4087061" lon="114.1212524">
<ele>753.784</ele>
<time>2018-01-21T02:40:12.094Z</time>
</trkpt>
<trkpt lat="22.4086955" lon="114.1213499">
<ele>752.909</ele>
<time>2018-01-21T02:40:23.037Z</time>
</trkpt>
<trkpt lat="22.4086955" lon="114.1213499">
<ele>752.496</ele>
<time>2018-01-21T02:40:34.034Z</time>
</trkpt>
<trkpt lat="22.4086955" lon="114.1213499">
<ele>752.358</ele>
<time>2018-01-21T02:40:35.600Z</time>
</trkpt>
<trkpt lat="22.4086779" lon="114.1214577">
<ele>751.887</ele>
<time>2018-01-21T02:40:48.143Z</time>
</trkpt>
<trkpt lat="22.4086141" lon="114.1215276">
<ele>752.583</ele>
<time>2018-01-21T02:40:55.158Z</time>
</trkpt>
<trkpt lat="22.4085384" lon="114.1215806">
<ele>754.882</ele>
<time>2018-01-21T02:41:02.040Z</time>
</trkpt>
<trkpt lat="22.4085384" lon="114.1215806">
<ele>757.269</ele>
<time>2018-01-21T02:41:08.058Z</time>
</trkpt>
<trkpt lat="22.4085384" lon="114.1215806">
<ele>758.105</ele>
<time>2018-01-21T02:41:08.158Z</time>
</trkpt>
<trkpt lat="22.4084058" lon="114.1216299">
<ele>757.537</ele>
<time>2018-01-21T02:41:18.040Z</time>
</trkpt>
<trkpt lat="22.4084058" lon="114.1216299">
<ele>756.594</ele>
<time>2018-01-21T02:41:28.037Z</time>
</trkpt>
<trkpt lat="22.4084058" lon="114.1216299">
<ele>756.034</ele>
<time>2018-01-21T02:41:52.996Z</time>
</trkpt>
<trkpt lat="22.4082354" lon="114.1215980">
<ele>755.933</ele>
<time>2018-01-21T02:42:15.039Z</time>
</trkpt>
<trkpt lat="22.4082354" lon="114.1215980">
<ele>756.034</ele>
<time>2018-01-21T02:42:18.037Z</time>
</trkpt>
<trkpt lat="22.4082354" lon="114.1215980">
<ele>755.950</ele>
<time>2018-01-21T02:42:18.137Z</time>
</trkpt>
<trkpt lat="22.4081382" lon="114.1215058">
<ele>755.585</ele>
<time>2018-01-21T02:42:36.594Z</time>
</trkpt>
<trkpt lat="22.4081111" lon="114.1214044">
<ele>755.552</ele>
<time>2018-01-21T02:42:46.738Z</time>
</trkpt>
<trkpt lat="22.4080188" lon="114.1214353">
<ele>756.282</ele>
<time>2018-01-21T02:42:57.764Z</time>
</trkpt>
<trkpt lat="22.4079553" lon="114.1215049">
<ele>757.373</ele>
<time>2018-01-21T02:43:06.039Z</time>
</trkpt>
<trkpt lat="22.4079553" lon="114.1215049">
<ele>758.180</ele>
<time>2018-01-21T02:43:15.045Z</time>
</trkpt>
<trkpt lat="22.4079553" lon="114.1215049">
<ele>758.375</ele>
<time>2018-01-21T02:43:15.145Z</time>
</trkpt>
<trkpt lat="22.4078701" lon="114.1215815">
<ele>758.013</ele>
<time>2018-01-21T02:43:40.576Z</time>
</trkpt>
<trkpt lat="22.4077818" lon="114.1216107">
<ele>757.550</ele>
<time>2018-01-21T02:43:51.416Z</time>
</trkpt>
<trkpt lat="22.4076927" lon="114.1216387">
<ele>757.528</ele>
<time>2018-01-21T02:43:59.950Z</time>
</trkpt>
<trkpt lat="22.4076048" lon="114.1215960">
<ele>757.868</ele>
<time>2018-01-21T02:44:07.640Z</time>
</trkpt>
<trkpt lat="22.4075219" lon="114.1215320">
<ele>758.111</ele>
<time>2018-01-21T02:44:15.445Z</time>
</trkpt>
<trkpt lat="22.4074340" lon="114.1214881">
<ele>758.174</ele>
<time>2018-01-21T02:44:22.789Z</time>
</trkpt>
<trkpt lat="22.4073427" lon="114.1214617">
<ele>758.247</ele>
<time>2018-01-21T02:44:30.038Z</time>
</trkpt>
<trkpt lat="22.4073427" lon="114.1214617">
<ele>758.332</ele>
<time>2018-01-21T02:44:34.035Z</time>
</trkpt>
<trkpt lat="22.4073427" lon="114.1214617">
<ele>758.269</ele>
<time>2018-01-21T02:44:38.594Z</time>
</trkpt>
<trkpt lat="22.4072497" lon="114.1214793">
<ele>757.599</ele>
<time>2018-01-21T02:44:55.925Z</time>
</trkpt>
<trkpt lat="22.4071588" lon="114.1215199">
<ele>757.425</ele>
<time>2018-01-21T02:45:05.300Z</time>
</trkpt>
<trkpt lat="22.4070683" lon="114.1215320">
<ele>757.491</ele>
<time>2018-01-21T02:45:12.920Z</time>
</trkpt>
<trkpt lat="22.4069720" lon="114.1215417">
<ele>757.825</ele>
<time>2018-01-21T02:45:20.519Z</time>
</trkpt>
<trkpt lat="22.4068727" lon="114.1215490">
<ele>758.378</ele>
<time>2018-01-21T02:45:28.711Z</time>
</trkpt>
<trkpt lat="22.4067936" lon="114.1214912">
<ele>759.404</ele>
<time>2018-01-21T02:45:37.534Z</time>
</trkpt>
<trkpt lat="22.4066997" lon="114.1214636">
<ele>761.289</ele>
<time>2018-01-21T02:45:48.056Z</time>
</trkpt>
<trkpt lat="22.4066997" lon="114.1214636">
<ele>763.512</ele>
<time>2018-01-21T02:45:52.998Z</time>
</trkpt>
<trkpt lat="22.4066997" lon="114.1214636">
<ele>764.665</ele>
<time>2018-01-21T02:45:53.098Z</time>
</trkpt>
<trkpt lat="22.4066093" lon="114.1214657">
<ele>763.276</ele>
<time>2018-01-21T02:46:16.999Z</time>
</trkpt>
<trkpt lat="22.4066093" lon="114.1214657">
<ele>762.654</ele>
<time>2018-01-21T02:46:23.999Z</time>
</trkpt>
<trkpt lat="22.4066093" lon="114.1214657">
<ele>762.433</ele>
<time>2018-01-21T02:46:24.099Z</time>
</trkpt>
<trkpt lat="22.4065158" lon="114.1214235">
<ele>762.384</ele>
<time>2018-01-21T02:46:55.998Z</time>
</trkpt>
<trkpt lat="22.4065158" lon="114.1214235">
<ele>762.291</ele>
<time>2018-01-21T02:46:58.998Z</time>
</trkpt>
<trkpt lat="22.4065158" lon="114.1214235">
<ele>762.039</ele>
<time>2018-01-21T02:46:59.437Z</time>
</trkpt>
<trkpt lat="22.4064412" lon="114.1213669">
<ele>761.470</ele>
<time>2018-01-21T02:47:26.872Z</time>
</trkpt>
<trkpt lat="22.4063539" lon="114.1213241">
<ele>761.505</ele>
<time>2018-01-21T02:47:39.129Z</time>
</trkpt>
<trkpt lat="22.4062741" lon="114.1212675">
<ele>761.846</ele>
<time>2018-01-21T02:47:50.734Z</time>
</trkpt>
<trkpt lat="22.4061796" lon="114.1212653">
<ele>762.154</ele>
<time>2018-01-21T02:48:01.384Z</time>
</trkpt>
<trkpt lat="22.4060801" lon="114.1212835">
<ele>762.125</ele>
<time>2018-01-21T02:48:11.321Z</time>
</trkpt>
<trkpt lat="22.4059897" lon="114.1212528">
<ele>761.828</ele>
<time>2018-01-21T02:48:21.025Z</time>
</trkpt>
<trkpt lat="22.4058978" lon="114.1212234">
<ele>761.322</ele>
<time>2018-01-21T02:48:31.351Z</time>
</trkpt>
<trkpt lat="22.4058035" lon="114.1212255">
<ele>760.080</ele>
<time>2018-01-21T02:48:41.685Z</time>
</trkpt>
<trkpt lat="22.4057113" lon="114.1212348">
<ele>757.984</ele>
<time>2018-01-21T02:48:52.374Z</time>
</trkpt>
<trkpt lat="22.4056210" lon="114.1212742">
<ele>756.097</ele>
<time>2018-01-21T02:49:03.703Z</time>
</trkpt>
<trkpt lat="22.4055314" lon="114.1212965">
<ele>755.244</ele>
<time>2018-01-21T02:49:12.960Z</time>
</trkpt>
<trkpt lat="22.4054414" lon="114.1213430">
<ele>755.138</ele>
<time>2018-01-21T02:49:22.223Z</time>
</trkpt>
<trkpt lat="22.4053537" lon="114.1213684">
<ele>755.214</ele>
<time>2018-01-21T02:49:30.674Z</time>
</trkpt>
<trkpt lat="22.4052593" lon="114.1213948">
<ele>754.899</ele>
<time>2018-01-21T02:49:40.649Z</time>
</trkpt>
<trkpt lat="22.4051670" lon="114.1214090">
<ele>753.947</ele>
<time>2018-01-21T02:49:51.995Z</time>
</trkpt>
<trkpt lat="22.4051670" lon="114.1214090">
<ele>752.780</ele>
<time>2018-01-21T02:50:03.995Z</time>
</trkpt>
<trkpt lat="22.4051670" lon="114.1214090">
<ele>752.007</ele>
<time>2018-01-21T02:50:04.095Z</time>
</trkpt>
<trkpt lat="22.4050296" lon="114.1213422">
<ele>751.745</ele>
<time>2018-01-21T02:50:27.769Z</time>
</trkpt>
<trkpt lat="22.4049436" lon="114.1213051">
<ele>751.402</ele>
<time>2018-01-21T02:50:46.824Z</time>
</trkpt>
<trkpt lat="22.4048566" lon="114.1212640">
<ele>750.555</ele>
<time>2018-01-21T02:51:03.293Z</time>
</trkpt>
<trkpt lat="22.4047677" lon="114.1212412">
<ele>749.869</ele>
<time>2018-01-21T02:51:15.743Z</time>
</trkpt>
<trkpt lat="22.4046722" lon="114.1212541">
<ele>750.144</ele>
<time>2018-01-21T02:51:28.489Z</time>
</trkpt>
<trkpt lat="22.4045868" lon="114.1212900">
<ele>751.721</ele>
<time>2018-01-21T02:51:39.760Z</time>
</trkpt>
<trkpt lat="22.4044957" lon="114.1213221">
<ele>754.636</ele>
<time>2018-01-21T02:51:50.823Z</time>
</trkpt>
<trkpt lat="22.4044006" lon="114.1213147">
<ele>758.078</ele>
<time>2018-01-21T02:52:04.580Z</time>
</trkpt>
<trkpt lat="22.4043096" lon="114.1212815">
<ele>761.026</ele>
<time>2018-01-21T02:52:16.624Z</time>
</trkpt>
<trkpt lat="22.4042097" lon="114.1212567">
<ele>763.173</ele>
<time>2018-01-21T02:52:26.991Z</time>
</trkpt>
<trkpt lat="22.4042097" lon="114.1212567">
<ele>764.332</ele>
<time>2018-01-21T02:52:33.991Z</time>
</trkpt>
<trkpt lat="22.4042097" lon="114.1212567">
<ele>764.441</ele>
<time>2018-01-21T02:52:34.480Z</time>
</trkpt>
<trkpt lat="22.4040811" lon="114.1212246">
<ele>763.988</ele>
<time>2018-01-21T02:52:52.889Z</time>
</trkpt>
<trkpt lat="22.4040034" lon="114.1211744">
<ele>764.218</ele>
<time>2018-01-21T02:53:00.997Z</time>
</trkpt>
<trkpt lat="22.4040034" lon="114.1211744">
<ele>765.715</ele>
<time>2018-01-21T02:53:03.997Z</time>
</trkpt>
<trkpt lat="22.4040034" lon="114.1211744">
<ele>766.966</ele>
<time>2018-01-21T02:53:06.602Z</time>
</trkpt>
<trkpt lat="22.4038714" lon="114.1211011">
<ele>766.640</ele>
<time>2018-01-21T02:53:30.309Z</time>
</trkpt>
<trkpt lat="22.4037958" lon="114.1210418">
<ele>766.930</ele>
<time>2018-01-21T02:53:41.228Z</time>
</trkpt>
<trkpt lat="22.4037038" lon="114.1210182">
<ele>769.733</ele>
<time>2018-01-21T02:53:53.460Z</time>
</trkpt>
<trkpt lat="22.4036483" lon="114.1209404">
<ele>773.054</ele>
<time>2018-01-21T02:54:06.827Z</time>
</trkpt>
<trkpt lat="22.4035593" lon="114.1209754">
<ele>774.659</ele>
<time>2018-01-21T02:54:20.998Z</time>
</trkpt>
<trkpt lat="22.4035593" lon="114.1209754">
<ele>774.810</ele>
<time>2018-01-21T02:54:30.998Z</time>
</trkpt>
<trkpt lat="22.4035593" lon="114.1209754">
<ele>774.378</ele>
<time>2018-01-21T02:56:28.891Z</time>
</trkpt>
<trkpt lat="22.4035898" lon="114.1210074">
<ele>773.329</ele>
<time>2018-01-21T02:56:44.999Z</time>
</trkpt>
<trkpt lat="22.4035757" lon="114.1208998">
<ele>772.973</ele>
<time>2018-01-21T02:56:59.999Z</time>
</trkpt>
<trkpt lat="22.4035757" lon="114.1208998">
<ele>773.159</ele>
<time>2018-01-21T02:57:00.000Z</time>
</trkpt>
<trkpt lat="22.4035757" lon="114.1208998">
<ele>773.993</ele>
<time>2018-01-21T02:57:08.999Z</time>
</trkpt>
<trkpt lat="22.4035757" lon="114.1208998">
<ele>774.593</ele>
<time>2018-01-21T03:00:45.854Z</time>
</trkpt>
<trkpt lat="22.4034784" lon="114.1208488">
<ele>774.148</ele>
<time>2018-01-21T03:01:13.993Z</time>
</trkpt>
<trkpt lat="22.4034784" lon="114.1208488">
<ele>773.250</ele>
<time>2018-01-21T03:01:17.993Z</time>
</trkpt>
<trkpt lat="22.4034784" lon="114.1208488">
<ele>772.698</ele>
<time>2018-01-21T03:01:53.885Z</time>
</trkpt>
<trkpt lat="22.4034952" lon="114.1209455">
<ele>772.342</ele>
<time>2018-01-21T03:02:47.008Z</time>
</trkpt>
<trkpt lat="22.4034128" lon="114.1209894">
<ele>772.442</ele>
<time>2018-01-21T03:03:08.990Z</time>
</trkpt>
<trkpt lat="22.4034128" lon="114.1209894">
<ele>772.782</ele>
<time>2018-01-21T03:03:19.990Z</time>
</trkpt>
<trkpt lat="22.4034128" lon="114.1209894">
<ele>772.945</ele>
<time>2018-01-21T03:03:20.090Z</time>
</trkpt>
<trkpt lat="22.4032311" lon="114.1208424">
<ele>772.572</ele>
<time>2018-01-21T03:06:13.996Z</time>
</trkpt>
<trkpt lat="22.4032311" lon="114.1208424">
<ele>771.988</ele>
<time>2018-01-21T03:06:22.996Z</time>
</trkpt>
<trkpt lat="22.4032311" lon="114.1208424">
<ele>771.560</ele>
<time>2018-01-21T03:06:59.821Z</time>
</trkpt>
<trkpt lat="22.4031052" lon="114.1207156">
<ele>771.274</ele>
<time>2018-01-21T03:08:17.993Z</time>
</trkpt>
<trkpt lat="22.4031052" lon="114.1207156">
<ele>771.001</ele>
<time>2018-01-21T03:08:28.993Z</time>
</trkpt>
<trkpt lat="22.4031052" lon="114.1207156">
<ele>770.656</ele>
<time>2018-01-21T03:09:06.992Z</time>
</trkpt>
<trkpt lat="22.4031052" lon="114.1207156">
<ele>770.307</ele>
<time>2018-01-21T03:09:26.991Z</time>
</trkpt>
<trkpt lat="22.4031052" lon="114.1207156">
<ele>770.057</ele>
<time>2018-01-21T03:09:36.580Z</time>
</trkpt>
<trkpt lat="22.4030760" lon="114.1206215">
<ele>769.597</ele>
<time>2018-01-21T03:10:40.989Z</time>
</trkpt>
<trkpt lat="22.4030760" lon="114.1206215">
<ele>769.338</ele>
<time>2018-01-21T03:10:51.989Z</time>
</trkpt>
<trkpt lat="22.4030760" lon="114.1206215">
<ele>768.992</ele>
<time>2018-01-21T03:15:29.475Z</time>
</trkpt>
<trkpt lat="22.4029586" lon="114.1204938">
<ele>768.642</ele>
<time>2018-01-21T03:15:52.938Z</time>
</trkpt>
<trkpt lat="22.4029249" lon="114.1204018">
<ele>763.130</ele>
<time>2018-01-21T03:16:01.992Z</time>
</trkpt>
<trkpt lat="22.4029249" lon="114.1204018">
<ele>749.247</ele>
<time>2018-01-21T03:16:26.992Z</time>
</trkpt>
<trkpt lat="22.4029249" lon="114.1204018">
<ele>737.601</ele>
<time>2018-01-21T03:16:44.778Z</time>
</trkpt>
<trkpt lat="22.4028594" lon="114.1203322">
<ele>743.269</ele>
<time>2018-01-21T03:16:59.991Z</time>
</trkpt>
<trkpt lat="22.4028594" lon="114.1203322">
<ele>746.814</ele>
<time>2018-01-21T03:17:02.991Z</time>
</trkpt>
<trkpt lat="22.4028594" lon="114.1203322">
<ele>746.305</ele>
<time>2018-01-21T03:17:03.091Z</time>
</trkpt>
<trkpt lat="22.4027739" lon="114.1202784">
<ele>744.329</ele>
<time>2018-01-21T03:17:27.990Z</time>
</trkpt>
<trkpt lat="22.4027739" lon="114.1202784">
<ele>744.781</ele>
<time>2018-01-21T03:17:31.990Z</time>
</trkpt>
<trkpt lat="22.4027739" lon="114.1202784">
<ele>744.556</ele>
<time>2018-01-21T03:17:39.943Z</time>
</trkpt>
<trkpt lat="22.4026829" lon="114.1202420">
<ele>743.721</ele>
<time>2018-01-21T03:18:08.721Z</time>
</trkpt>
<trkpt lat="22.4026010" lon="114.1201897">
<ele>740.500</ele>
<time>2018-01-21T03:18:29.998Z</time>
</trkpt>
<trkpt lat="22.4026010" lon="114.1201897">
<ele>732.117</ele>
<time>2018-01-21T03:18:48.999Z</time>
</trkpt>
<trkpt lat="22.4026010" lon="114.1201897">
<ele>724.980</ele>
<time>2018-01-21T03:19:13.473Z</time>
</trkpt>
<trkpt lat="22.4025637" lon="114.1200647">
<ele>724.795</ele>
<time>2018-01-21T03:19:49.997Z</time>
</trkpt>
<trkpt lat="22.4025637" lon="114.1200647">
<ele>727.183</ele>
<time>2018-01-21T03:20:05.997Z</time>
</trkpt>
<trkpt lat="22.4025637" lon="114.1200647">
<ele>727.158</ele>
<time>2018-01-21T03:20:16.997Z</time>
</trkpt>
<trkpt lat="22.4025637" lon="114.1200647">
<ele>725.773</ele>
<time>2018-01-21T03:20:17.097Z</time>
</trkpt>
<trkpt lat="22.4025467" lon="114.1199538">
<ele>725.344</ele>
<time>2018-01-21T03:20:45.447Z</time>
</trkpt>
<trkpt lat="22.4024812" lon="114.1198823">
<ele>721.636</ele>
<time>2018-01-21T03:20:59.854Z</time>
</trkpt>
<trkpt lat="22.4024113" lon="114.1198176">
<ele>710.694</ele>
<time>2018-01-21T03:21:11.996Z</time>
</trkpt>
<trkpt lat="22.4024054" lon="114.1197168">
<ele>698.104</ele>
<time>2018-01-21T03:21:24.994Z</time>
</trkpt>
<trkpt lat="22.4023795" lon="114.1196149">
<ele>690.324</ele>
<time>2018-01-21T03:21:38.994Z</time>
</trkpt>
<trkpt lat="22.4023795" lon="114.1196149">
<ele>686.831</ele>
<time>2018-01-21T03:22:01.994Z</time>
</trkpt>
<trkpt lat="22.4023795" lon="114.1196149">
<ele>685.698</ele>
<time>2018-01-21T03:22:11.994Z</time>
</trkpt>
<trkpt lat="22.4023795" lon="114.1196149">
<ele>685.657</ele>
<time>2018-01-21T03:22:12.094Z</time>
</trkpt>
<trkpt lat="22.4024419" lon="114.1194692">
<ele>685.693</ele>
<time>2018-01-21T03:22:25.411Z</time>
</trkpt>
<trkpt lat="22.4023587" lon="114.1194298">
<ele>684.285</ele>
<time>2018-01-21T03:22:30.993Z</time>
</trkpt>
<trkpt lat="22.4023587" lon="114.1194298">
<ele>680.917</ele>
<time>2018-01-21T03:22:39.993Z</time>
</trkpt>
<trkpt lat="22.4023587" lon="114.1194298">
<ele>678.124</ele>
<time>2018-01-21T03:22:44.513Z</time>
</trkpt>
<trkpt lat="22.4023551" lon="114.1193067">
<ele>679.029</ele>
<time>2018-01-21T03:22:53.529Z</time>
</trkpt>
<trkpt lat="22.4023013" lon="114.1192256">
<ele>679.121</ele>
<time>2018-01-21T03:22:56.992Z</time>
</trkpt>
<trkpt lat="22.4023013" lon="114.1192256">
<ele>677.357</ele>
<time>2018-01-21T03:23:04.992Z</time>
</trkpt>
<trkpt lat="22.4023013" lon="114.1192256">
<ele>675.513</ele>
<time>2018-01-21T03:23:26.992Z</time>
</trkpt>
<trkpt lat="22.4023013" lon="114.1192256">
<ele>675.230</ele>
<time>2018-01-21T03:34:02.998Z</time>
</trkpt>
<trkpt lat="22.4023013" lon="114.1192256">
<ele>675.613</ele>
<time>2018-01-21T03:42:11.998Z</time>
</trkpt>
<trkpt lat="22.4023013" lon="114.1192256">
<ele>675.509</ele>
<time>2018-01-21T03:47:50.422Z</time>
</trkpt>
<trkpt lat="22.4023013" lon="114.1192256">
<ele>674.814</ele>
<time>2018-01-21T03:48:09.989Z</time>
</trkpt>
<trkpt lat="22.4023013" lon="114.1192256">
<ele>674.676</ele>
<time>2018-01-21T03:48:10.089Z</time>
</trkpt>
<trkpt lat="22.4024331" lon="114.1191478">
<ele>674.475</ele>
<time>2018-01-21T03:48:28.735Z</time>
</trkpt>
<trkpt lat="22.4025258" lon="114.1191476">
<ele>673.268</ele>
<time>2018-01-21T03:48:38.998Z</time>
</trkpt>
<trkpt lat="22.4025258" lon="114.1191476">
<ele>670.613</ele>
<time>2018-01-21T03:49:02.999Z</time>
</trkpt>
<trkpt lat="22.4025258" lon="114.1191476">
<ele>668.380</ele>
<time>2018-01-21T03:49:04.918Z</time>
</trkpt>
<trkpt lat="22.4026287" lon="114.1191209">
<ele>668.985</ele>
<time>2018-01-21T03:49:15.999Z</time>
</trkpt>
<trkpt lat="22.4026287" lon="114.1191209">
<ele>669.454</ele>
<time>2018-01-21T03:49:24.998Z</time>
</trkpt>
<trkpt lat="22.4026287" lon="114.1191209">
<ele>669.153</ele>
<time>2018-01-21T03:49:25.098Z</time>
</trkpt>
<trkpt lat="22.4026986" lon="114.1190444">
<ele>668.447</ele>
<time>2018-01-21T03:49:49.998Z</time>
</trkpt>
<trkpt lat="22.4026986" lon="114.1190444">
<ele>668.381</ele>
<time>2018-01-21T03:49:49.998Z</time>
</trkpt>
<trkpt lat="22.4026986" lon="114.1190444">
<ele>668.118</ele>
<time>2018-01-21T03:50:07.830Z</time>
</trkpt>
<trkpt lat="22.4026914" lon="114.1189271">
<ele>667.596</ele>
<time>2018-01-21T03:51:01.545Z</time>
</trkpt>
<trkpt lat="22.4027327" lon="114.1188369">
<ele>666.886</ele>
<time>2018-01-21T03:51:26.996Z</time>
</trkpt>
<trkpt lat="22.4027327" lon="114.1188369">
<ele>665.171</ele>
<time>2018-01-21T03:51:44.995Z</time>
</trkpt>
<trkpt lat="22.4027327" lon="114.1188369">
<ele>663.641</ele>
<time>2018-01-21T03:51:45.095Z</time>
</trkpt>
<trkpt lat="22.4028040" lon="114.1187417">
<ele>663.391</ele>
<time>2018-01-21T03:51:59.995Z</time>
</trkpt>
<trkpt lat="22.4028040" lon="114.1187417">
<ele>663.614</ele>
<time>2018-01-21T03:52:04.995Z</time>
</trkpt>
<trkpt lat="22.4028040" lon="114.1187417">
<ele>663.398</ele>
<time>2018-01-21T03:52:05.095Z</time>
</trkpt>
<trkpt lat="22.4028883" lon="114.1187069">
<ele>662.744</ele>
<time>2018-01-21T03:52:18.994Z</time>
</trkpt>
<trkpt lat="22.4028883" lon="114.1187069">
<ele>662.620</ele>
<time>2018-01-21T03:52:18.994Z</time>
</trkpt>
<trkpt lat="22.4028883" lon="114.1187069">
<ele>662.347</ele>
<time>2018-01-21T03:52:23.150Z</time>
</trkpt>
<trkpt lat="22.4029739" lon="114.1186751">
<ele>661.844</ele>
<time>2018-01-21T03:52:39.994Z</time>
</trkpt>
<trkpt lat="22.4029739" lon="114.1186751">
<ele>661.692</ele>
<time>2018-01-21T03:52:46.994Z</time>
</trkpt>
<trkpt lat="22.4029739" lon="114.1186751">
<ele>661.410</ele>
<time>2018-01-21T03:52:51.227Z</time>
</trkpt>
<trkpt lat="22.4030753" lon="114.1186808">
<ele>661.095</ele>
<time>2018-01-21T03:53:02.993Z</time>
</trkpt>
<trkpt lat="22.4030753" lon="114.1186808">
<ele>660.836</ele>
<time>2018-01-21T03:53:11.993Z</time>
</trkpt>
<trkpt lat="22.4030753" lon="114.1186808">
<ele>660.541</ele>
<time>2018-01-21T03:53:12.093Z</time>
</trkpt>
<trkpt lat="22.4031884" lon="114.1186787">
<ele>660.245</ele>
<time>2018-01-21T03:53:27.993Z</time>
</trkpt>
<trkpt lat="22.4031884" lon="114.1186787">
<ele>659.988</ele>
<time>2018-01-21T03:53:40.992Z</time>
</trkpt>
<trkpt lat="22.4031884" lon="114.1186787">
<ele>659.693</ele>
<time>2018-01-21T03:53:41.092Z</time>
</trkpt>
<trkpt lat="22.4033225" lon="114.1186473">
<ele>659.397</ele>
<time>2018-01-21T03:53:58.992Z</time>
</trkpt>
<trkpt lat="22.4033225" lon="114.1186473">
<ele>659.142</ele>
<time>2018-01-21T03:54:06.992Z</time>
</trkpt>
<trkpt lat="22.4033225" lon="114.1186473">
<ele>658.847</ele>
<time>2018-01-21T03:54:07.092Z</time>
</trkpt>
<trkpt lat="22.4033963" lon="114.1185793">
<ele>658.377</ele>
<time>2018-01-21T03:54:50.870Z</time>
</trkpt>
<trkpt lat="22.4034833" lon="114.1185483">
<ele>658.260</ele>
<time>2018-01-21T03:55:03.990Z</time>
</trkpt>
<trkpt lat="22.4034833" lon="114.1185483">
<ele>658.039</ele>
<time>2018-01-21T03:55:14.990Z</time>
</trkpt>
<trkpt lat="22.4034833" lon="114.1185483">
<ele>657.741</ele>
<time>2018-01-21T03:55:15.090Z</time>
</trkpt>
<trkpt lat="22.4035950" lon="114.1185150">
<ele>657.529</ele>
<time>2018-01-21T03:55:31.989Z</time>
</trkpt>
<trkpt lat="22.4035950" lon="114.1185150">
<ele>657.424</ele>
<time>2018-01-21T03:55:34.996Z</time>
</trkpt>
<trkpt lat="22.4035950" lon="114.1185150">
<ele>657.278</ele>
<time>2018-01-21T03:55:53.639Z</time>
</trkpt>
<trkpt lat="22.4036983" lon="114.1185107">
<ele>656.775</ele>
<time>2018-01-21T03:56:42.203Z</time>
</trkpt>
<trkpt lat="22.4037900" lon="114.1185052">
<ele>656.767</ele>
<time>2018-01-21T03:57:15.607Z</time>
</trkpt>
<trkpt lat="22.4038649" lon="114.1184511">
<ele>657.053</ele>
<time>2018-01-21T03:57:33.997Z</time>
</trkpt>
<trkpt lat="22.4038649" lon="114.1184511">
<ele>657.383</ele>
<time>2018-01-21T03:57:53.997Z</time>
</trkpt>
<trkpt lat="22.4038649" lon="114.1184511">
<ele>657.419</ele>
<time>2018-01-21T03:57:54.097Z</time>
</trkpt>
<trkpt lat="22.4039786" lon="114.1184456">
<ele>657.115</ele>
<time>2018-01-21T03:58:02.997Z</time>
</trkpt>
<trkpt lat="22.4039786" lon="114.1184456">
<ele>656.740</ele>
<time>2018-01-21T03:58:11.997Z</time>
</trkpt>
<trkpt lat="22.4039786" lon="114.1184456">
<ele>656.508</ele>
<time>2018-01-21T03:58:28.996Z</time>
</trkpt>
<trkpt lat="22.4039786" lon="114.1184456">
<ele>656.338</ele>
<time>2018-01-21T03:58:29.434Z</time>
</trkpt>
<trkpt lat="22.4040895" lon="114.1183977">
<ele>656.153</ele>
<time>2018-01-21T03:58:47.770Z</time>
</trkpt>
<trkpt lat="22.4041487" lon="114.1183221">
<ele>655.979</ele>
<time>2018-01-21T03:58:56.483Z</time>
</trkpt>
<trkpt lat="22.4042113" lon="114.1182376">
<ele>655.751</ele>
<time>2018-01-21T03:59:03.996Z</time>
</trkpt>
<trkpt lat="22.4042113" lon="114.1182376">
<ele>655.418</ele>
<time>2018-01-21T03:59:10.996Z</time>
</trkpt>
<trkpt lat="22.4042113" lon="114.1182376">
<ele>655.102</ele>
<time>2018-01-21T03:59:11.096Z</time>
</trkpt>
<trkpt lat="22.4043195" lon="114.1181880">
<ele>654.742</ele>
<time>2018-01-21T03:59:23.995Z</time>
</trkpt>
<trkpt lat="22.4043195" lon="114.1181880">
<ele>654.565</ele>
<time>2018-01-21T03:59:29.995Z</time>
</trkpt>
<trkpt lat="22.4043195" lon="114.1181880">
<ele>654.276</ele>
<time>2018-01-21T03:59:32.477Z</time>
</trkpt>
<trkpt lat="22.4044143" lon="114.1181749">
<ele>653.971</ele>
<time>2018-01-21T03:59:42.995Z</time>
</trkpt>
<trkpt lat="22.4044143" lon="114.1181749">
<ele>653.728</ele>
<time>2018-01-21T03:59:50.995Z</time>
</trkpt>
<trkpt lat="22.4044143" lon="114.1181749">
<ele>653.489</ele>
<time>2018-01-21T03:59:51.095Z</time>
</trkpt>
<trkpt lat="22.4045460" lon="114.1181786">
<ele>653.254</ele>
<time>2018-01-21T04:00:11.994Z</time>
</trkpt>
<trkpt lat="22.4045460" lon="114.1181786">
<ele>653.007</ele>
<time>2018-01-21T04:00:25.995Z</time>
</trkpt>
<trkpt lat="22.4045460" lon="114.1181786">
<ele>652.699</ele>
<time>2018-01-21T04:00:26.095Z</time>
</trkpt>
<trkpt lat="22.4046133" lon="114.1180630">
<ele>652.409</ele>
<time>2018-01-21T04:00:59.995Z</time>
</trkpt>
<trkpt lat="22.4046133" lon="114.1180630">
<ele>652.162</ele>
<time>2018-01-21T04:01:01.994Z</time>
</trkpt>
<trkpt lat="22.4046133" lon="114.1180630">
<ele>651.872</ele>
<time>2018-01-21T04:01:02.094Z</time>
</trkpt>
<trkpt lat="22.4046808" lon="114.1179863">
<ele>651.406</ele>
<time>2018-01-21T04:01:28.350Z</time>
</trkpt>
<trkpt lat="22.4047582" lon="114.1179313">
<ele>650.888</ele>
<time>2018-01-21T04:01:36.994Z</time>
</trkpt>
<trkpt lat="22.4047582" lon="114.1179313">
<ele>649.674</ele>
<time>2018-01-21T04:01:52.993Z</time>
</trkpt>
<trkpt lat="22.4047582" lon="114.1179313">
<ele>648.565</ele>
<time>2018-01-21T04:01:53.093Z</time>
</trkpt>
<trkpt lat="22.4048736" lon="114.1179722">
<ele>648.314</ele>
<time>2018-01-21T04:02:07.254Z</time>
</trkpt>
<trkpt lat="22.4049198" lon="114.1180571">
<ele>648.143</ele>
<time>2018-01-21T04:02:16.475Z</time>
</trkpt>
<trkpt lat="22.4050123" lon="114.1180485">
<ele>646.945</ele>
<time>2018-01-21T04:02:34.029Z</time>
</trkpt>
<trkpt lat="22.4050592" lon="114.1181347">
<ele>644.785</ele>
<time>2018-01-21T04:02:46.557Z</time>
</trkpt>
<trkpt lat="22.4051487" lon="114.1181250">
<ele>642.694</ele>
<time>2018-01-21T04:02:57.700Z</time>
</trkpt>
<trkpt lat="22.4052450" lon="114.1181354">
<ele>641.216</ele>
<time>2018-01-21T04:03:11.999Z</time>
</trkpt>
<trkpt lat="22.4052550" lon="114.1182383">
<ele>640.084</ele>
<time>2018-01-21T04:03:17.999Z</time>
</trkpt>
</trkseg>
</trk>
<extensions>
<fpdata xmlns="http://www.motionx.com/GPX-Extensions/1/1" sfv="10" origin="MotionXGPSFull 24.4 Build 5112 R64">
<bin enc="base64">
RgIAAAACAAAAJCU5Bf6Y1kEBAAAAM6Y5fwSZ1kEAANDL7tGlQGYBAADgpgMA+siNFxNP
hUD3CEVnA/mDQAAAAAASAAAAU3plIExvayBZdWVuIGxvb3AAFgAAAEphbiAyMSwgMjAx
OCAxMDoxNiBhbQAAAAAATKY5fwSZ1kFlxmyCBJnWQSnqOAA6K3VjIWxVQCwAAAABAAAA
Nx1So6KHXEDyFuC+S2g2QPrIjRcTT4VAAAAAAAAAJEAAAAAAAAA4QAAAAAAA4GRAAAAA
AAAAAAAAAAAAULgeheu1d0DG8HhdJAqFQAEAAAAqS0iAprvMvwEAAAABAAAA+QggrQdf
vD8qS0iAprvMvwEAAAABAAAAAQAAAPrIjRcTT4VAAAAAAAAAAAAAAAAAAAAAAAAAAAAA
AAAAAAAAAAAAAAAAAAAAAAAAAAUSAACZ8H9FBJnWQQAAAAAAAAAAAAAAAAAAAAD/JUS8
AgAAAAAAAAAAAAAAAQAAACcAAAAyNC4yIEJ1aWxkIDUwNjNSNjQsIE1YQUUgOC4xIGIu
IDYyNlI2NAAAAAAAhlwAAAEAAAABPgAAABT4Y1r8EWRaBC0HkAn+mNZBLQeQCf6Y1kEA
AAAiiFsxQAAAAAACMSU5Bf6Y1kHWkhAP/pjWQQAAAErbrkNAAAAAAAISoNMU/pjWQZ5i
UBb+mNZBAAAAYmCoRkAAAAAAAr69khr+mNZBxciQLv6Y1kEAAAA4O1JfQAAAAAACpUpR
Mf6Y1kFqolJp/pjWQQAAQL/k1HVAAAAAAAJ3L1Js/pjWQeTBxbH+mNZBAABAreSYg0AA
AAAAAmoZB+D+mNZBa0YG5P6Y1kEAAGBNyhiEQAAAAAACthUH6/6Y1kH/I8b4/pjWQQAA
gBas0IVAAAAAAAILtAYE/5jWQeSJhSb/mNZBAACg0YYgikAAAAAAA1SrTUv/mNZBVKtN
S/+Y1kEAABBpJJiOQAAAAAAE5nPFUv+Y1kHmc8VS/5jWQQAAUHkdh49AAAAAAALGvpAn
/5jWQXLaxmj/mNZBAACQI6UjkUAAAAAAAvW8xmr/mNZBpixGcf+Y1kEAAKAenIuRQAAA
AAACBmaIc/+Y1kG8kd12/5jWQQAAANruwJFAAAAAAAKph8aB/5jWQQABxoL/mNZBAABw
b+bQkUAAAAAAAvqYxoX/mNZB3JoFkf+Y1kEAAJCN1oSSQAAAAAAC9plHlP+Y1kHI6cak
/5jWQQAAsIrLjJNAAAAAAAI8Eken/5jWQTjdhbj/mNZBAABwOriglEAAAAAAAhpwRr3/
mNZBNudhwP+Y1kEAADCsb9KUQAAAAAACWvgIyP+Y1kEWhgXJ/5jWQQAA8Ic44pRAAAAA
AAIO+sbK/5jWQduHRvf/mNZBAADAZDGql0AAAAAAAmN8Rvn/mNZBuoLFHACZ1kEAADDK
IeKZQAAAAAACmtSGIACZ1kHsb0okAJnWQQAAUH9bHppAAAAAAAK064YoAJnWQSCzBDoA
mdZBAAAQ9jc2m0AAAAAAAx/1VFcAmdZBH/VUVwCZ1kEAABD2NzabQAAAAAAET3ZEWwCZ
1kFPdkRbAJnWQQAAEPY3NptAAAAAAAIvGAVfAJnWQSrCBV8AmdZBAADAlUI2m0AAAAAA
Ao7qiJ4AmdZBOEyGnwCZ1kEAAGCwGEabQAAAAAAC7PeHtgCZ1kF+pUW+AJnWQQAAgInz
wZtAAAAAAAKAm4jpAJnWQUOtHewAmdZBAACwpUTrm0AAAAAAAv92hggBmdZB+FWHCwGZ
1kEAAECVUhucQAAAAAAC0IHGJwGZ1kFX7EYvAZnWQQAAsD1Zk5xAAAAAAAJu9Yd4AZnW
QWwmBoMBmdZBAACQTTw7nUAAAAAAArZGx4kBmdZBZmgGjAGZ1kEAAJBoLl+dQAAAAAAC
uHPGjwGZ1kGNCkWTAZnWQQAA4NUXl51AAAAAAAJgQQeXAZnWQRyXhqYBmdZBAACgMQ2P
nkAAAAAAAty2iLUBmdZB0sjFuQGZ1kEAAABR3tKeQAAAAAACoz0HwQGZ1kGkOcXWAZnW
QQAAiAhfF6BAAAAAAAJa7kfbAZnWQW1yRuABmdZBAAAgKVM/oEAAAAAAAlLzheIBmdZB
dxKF5gGZ1kEAAEgiTF+gQAAAAAACtmoJXAOZ1kEwZ8ZeA5nWQQAAGAY0daBAAAAAAAJs
mUdgA5nWQT5EBWwDmdZBAACoXCHToEAAAAAAAuhpRm4DmdZBChSIcQOZ1kEAALitLu2g
QAAAAAACJlDIdgOZ1kEGn8Z3A5nWQQAAuCQh9aBAAAAAAAJU40eJA5nWQUsFhpQDmdZB
AABwNBJPoUAAAAAAAgGkBpgDmdZBWoGGmQOZ1kEAADgfEVuhQAAAAAACOh0InAOZ1kHz
yQedA5nWQQAAAIUOY6FAAAAAAAL0MAehA5nWQTgsBqQDmdZBAAAgXwZ7oUAAAAAAAoS2
y6cDmdZBHSBIqgOZ1kEAAOir6Y6hQAAAAAACjlYIrgOZ1kFAaoaxA5nWQQAAeEnaqqFA
AAAAAAL/B8e1A5nWQUxSBrgDmdZBAADgm9S8oUAAAAAAAvt1x8ADmdZBOh0HyQOZ1kEA
ANjV0f6hQAAAAAAC8BQIzQOZ1kGa6gXOA5nWQQAAKIPABqJAAAAAAALHSdjiA5nWQfp5
xfADmdZBAADABCp2okAAAAAAApruxvIDmdZBCDxG9QOZ1kEAADBwJIqiQAAAAAACdk1I
/QOZ1kEeUAYEBJnWQQAAcIUUwKJAAAAAAAKJ7UUGBJnWQagdxwgEmdZBAABoBh7UokAA
AAAAAnBbyAsEmdZBqwYFDgSZ1kEAAEBgA+aiQAAAAAAC+yIIEwSZ1kEyyMcWBJnWQQAA
+IkABKNAAAAAAAL5SgYfBJnWQa8mxx8EmdZBAACoZwcKo0AAAAAAAgQdRyQEmdZBV1yI
LASZ1kEAAEBiEUyjQAAAAAABOjtILgSZ1kFs6AN/BJnWQQAA0Mvu0aVAAAAAAAAAAAA=

</bin>
</fpdata>
</extensions>
</gpx>
